createdAt,value
2019-03-23T00:00:25.382Z,964.15
2019-03-23T00:01:25.368Z,964.11
2019-03-23T00:02:25.356Z,964.11
2019-03-23T00:03:25.343Z,964.13
2019-03-23T00:04:25.514Z,964.12
2019-03-23T00:05:25.318Z,964.13
2019-03-23T00:06:30.603Z,964.14
2019-03-23T00:07:25.292Z,964.14
2019-03-23T00:08:25.279Z,964.09
2019-03-23T00:09:25.274Z,964.09
2019-03-23T00:10:25.321Z,964.08
2019-03-23T00:11:25.241Z,964.08
2019-03-23T00:12:25.229Z,964.04
2019-03-23T00:13:25.218Z,964.08
2019-03-23T00:14:25.204Z,964.05
2019-03-23T00:15:25.191Z,964.02
2019-03-23T00:16:25.181Z,964
2019-03-23T00:17:25.168Z,964.04
2019-03-23T00:18:25.155Z,964.02
2019-03-23T00:19:25.148Z,964.03
2019-03-23T00:20:25.131Z,964.02
2019-03-23T00:21:25.120Z,964.03
2019-03-23T00:22:25.106Z,964.03
2019-03-23T00:23:25.093Z,964.04
2019-03-23T00:24:25.082Z,963.99
2019-03-23T00:25:25.070Z,964
2019-03-23T00:26:25.056Z,964.03
2019-03-23T00:27:25.043Z,963.99
2019-03-23T00:28:25.031Z,963.97
2019-03-23T00:29:25.018Z,963.97
2019-03-23T00:30:25.004Z,963.99
2019-03-23T00:31:24.993Z,963.96
2019-03-23T00:32:24.983Z,963.97
2019-03-23T00:33:24.968Z,963.97
2019-03-23T00:34:24.955Z,963.98
2019-03-23T00:35:24.943Z,963.99
2019-03-23T00:36:24.932Z,963.97
2019-03-23T00:37:24.918Z,963.96
2019-03-23T00:38:24.908Z,963.94
2019-03-23T00:39:24.893Z,963.92
2019-03-23T00:40:24.881Z,963.94
2019-03-23T00:41:24.868Z,963.91
2019-03-23T00:42:24.855Z,963.93
2019-03-23T00:43:24.844Z,963.92
2019-03-23T00:44:24.831Z,963.91
2019-03-23T00:45:24.819Z,963.92
2019-03-23T00:46:24.807Z,963.88
2019-03-23T00:47:24.794Z,963.89
2019-03-23T00:48:24.781Z,963.91
2019-03-23T00:49:24.769Z,963.87
2019-03-23T00:50:24.756Z,963.88
2019-03-23T00:51:24.743Z,963.85
2019-03-23T00:52:24.732Z,963.85
2019-03-23T00:53:24.719Z,963.86
2019-03-23T00:54:24.708Z,963.86
2019-03-23T00:55:24.693Z,963.86
2019-03-23T00:56:24.682Z,963.83
2019-03-23T00:57:24.718Z,963.86
2019-03-23T00:58:24.657Z,963.82
2019-03-23T00:59:24.644Z,963.86
2019-03-23T01:00:24.633Z,963.84
2019-03-23T01:01:24.620Z,963.91
2019-03-23T01:02:24.650Z,963.91
2019-03-23T01:03:24.594Z,963.84
2019-03-23T01:04:24.583Z,963.84
2019-03-23T01:05:24.571Z,963.83
2019-03-23T01:06:24.558Z,963.85
2019-03-23T01:07:24.544Z,963.81
2019-03-23T01:08:24.533Z,963.86
2019-03-23T01:09:24.521Z,963.82
2019-03-23T01:10:24.507Z,963.84
2019-03-23T01:11:24.495Z,963.84
2019-03-23T01:12:24.482Z,963.87
2019-03-23T01:13:24.471Z,963.86
2019-03-23T01:14:24.459Z,963.85
2019-03-23T01:15:24.444Z,963.88
2019-03-23T01:16:24.432Z,963.86
2019-03-23T01:17:24.419Z,963.86
2019-03-23T01:18:24.408Z,963.85
2019-03-23T01:19:24.394Z,963.83
2019-03-23T01:20:24.383Z,963.83
2019-03-23T01:21:24.369Z,963.84
2019-03-23T01:22:24.357Z,963.85
2019-03-23T01:23:24.346Z,963.82
2019-03-23T01:24:24.333Z,963.81
2019-03-23T01:25:24.319Z,963.85
2019-03-23T01:26:24.309Z,963.83
2019-03-23T01:27:24.295Z,963.76
2019-03-23T01:28:24.282Z,963.83
2019-03-23T01:29:24.273Z,963.8
2019-03-23T01:30:24.257Z,963.72
2019-03-23T01:31:24.247Z,963.74
2019-03-23T01:32:24.232Z,963.72
2019-03-23T01:33:24.219Z,963.71
2019-03-23T01:34:24.207Z,963.7
2019-03-23T01:35:24.194Z,963.72
2019-03-23T01:36:24.183Z,963.72
2019-03-23T01:37:24.169Z,963.66
2019-03-23T01:38:24.157Z,963.68
2019-03-23T01:39:24.143Z,963.69
2019-03-23T01:40:24.137Z,963.72
2019-03-23T01:41:24.118Z,963.69
2019-03-23T01:42:24.108Z,963.67
2019-03-23T01:43:24.092Z,963.69
2019-03-23T01:44:24.080Z,963.7
2019-03-23T01:45:24.073Z,963.69
2019-03-23T01:46:24.056Z,963.73
2019-03-23T01:47:24.046Z,963.71
2019-03-23T01:48:24.030Z,963.74
2019-03-23T01:49:24.018Z,963.69
2019-03-23T01:50:24.003Z,963.67
2019-03-23T01:51:23.996Z,963.68
2019-03-23T01:52:23.979Z,963.67
2019-03-23T01:53:23.967Z,963.72
2019-03-23T01:54:23.956Z,963.69
2019-03-23T01:55:23.943Z,963.68
2019-03-23T01:56:23.930Z,963.64
2019-03-23T01:57:23.918Z,963.68
2019-03-23T01:58:23.905Z,963.65
2019-03-23T01:59:23.891Z,963.69
2019-03-23T02:00:23.880Z,963.65
2019-03-23T02:01:23.867Z,963.68
2019-03-23T02:02:23.856Z,963.63
2019-03-23T02:03:23.845Z,963.62
2019-03-23T02:04:23.830Z,963.65
2019-03-23T02:05:23.816Z,963.6
2019-03-23T02:06:23.803Z,963.6
2019-03-23T02:07:23.801Z,963.59
2019-03-23T02:08:23.778Z,963.59
2019-03-23T02:09:23.766Z,963.62
2019-03-23T02:10:23.755Z,963.58
2019-03-23T02:11:23.741Z,963.63
2019-03-23T02:12:23.727Z,963.55
2019-03-23T02:13:23.715Z,963.59
2019-03-23T02:14:23.706Z,963.61
2019-03-23T02:15:23.691Z,963.59
2019-03-23T02:16:23.679Z,963.61
2019-03-23T02:17:23.665Z,963.56
2019-03-23T02:18:23.653Z,963.58
2019-03-23T02:19:23.640Z,963.57
2019-03-23T02:20:23.627Z,963.55
2019-03-23T02:21:23.615Z,963.52
2019-03-23T02:22:23.603Z,963.57
2019-03-23T02:23:23.590Z,963.58
2019-03-23T02:24:23.578Z,963.57
2019-03-23T02:25:23.570Z,963.59
2019-03-23T02:26:23.551Z,963.56
2019-03-23T02:27:23.540Z,963.57
2019-03-23T02:28:23.528Z,963.59
2019-03-23T02:29:23.515Z,963.56
2019-03-23T02:30:23.504Z,963.57
2019-03-23T02:31:23.529Z,963.57
2019-03-23T02:32:23.477Z,963.6
2019-03-23T02:33:23.466Z,963.6
2019-03-23T02:34:23.452Z,963.57
2019-03-23T02:35:23.438Z,963.61
2019-03-23T02:36:23.428Z,963.61
2019-03-23T02:37:27.851Z,963.59
2019-03-23T02:38:23.402Z,963.59
2019-03-23T02:39:23.391Z,963.62
2019-03-23T02:40:23.377Z,963.65
2019-03-23T02:41:23.363Z,963.61
2019-03-23T02:42:23.353Z,963.57
2019-03-23T02:43:23.338Z,963.63
2019-03-23T02:44:23.326Z,963.64
2019-03-23T02:45:23.312Z,963.65
2019-03-23T02:46:23.301Z,963.65
2019-03-23T02:47:23.289Z,963.67
2019-03-23T02:48:23.275Z,963.7
2019-03-23T02:49:23.263Z,963.69
2019-03-23T02:50:23.251Z,963.71
2019-03-23T02:51:23.245Z,963.75
2019-03-23T02:52:23.223Z,963.72
2019-03-23T02:53:23.211Z,963.7
2019-03-23T02:54:23.201Z,963.72
2019-03-23T02:55:23.190Z,963.72
2019-03-23T02:56:23.174Z,963.74
2019-03-23T02:57:23.162Z,963.7
2019-03-23T02:58:23.149Z,963.73
2019-03-23T02:59:23.135Z,963.74
2019-03-23T03:00:23.127Z,963.72
2019-03-23T03:01:23.117Z,963.7
2019-03-23T03:02:23.098Z,963.69
2019-03-23T03:03:23.083Z,963.68
2019-03-23T03:04:23.072Z,963.69
2019-03-23T03:05:23.061Z,963.66
2019-03-23T03:06:23.052Z,963.68
2019-03-23T03:07:23.034Z,963.68
2019-03-23T03:08:23.022Z,963.66
2019-03-23T03:09:23.014Z,963.64
2019-03-23T03:10:22.996Z,963.64
2019-03-23T03:11:22.983Z,963.66
2019-03-23T03:12:22.971Z,963.6
2019-03-23T03:13:22.961Z,963.64
2019-03-23T03:14:22.944Z,963.6
2019-03-23T03:15:22.932Z,963.62
2019-03-23T03:16:22.926Z,963.64
2019-03-23T03:17:22.906Z,963.59
2019-03-23T03:18:22.895Z,963.6
2019-03-23T03:19:22.881Z,963.57
2019-03-23T03:20:22.868Z,963.58
2019-03-23T03:21:22.854Z,963.64
2019-03-23T03:22:22.843Z,963.6
2019-03-23T03:23:22.829Z,963.55
2019-03-23T03:24:22.816Z,963.59
2019-03-23T03:25:22.803Z,963.58
2019-03-23T03:26:22.791Z,963.61
2019-03-23T03:27:22.782Z,963.61
2019-03-23T03:28:22.765Z,963.57
2019-03-23T03:29:22.755Z,963.57
2019-03-23T03:30:22.751Z,963.58
2019-03-23T03:31:22.743Z,963.58
2019-03-23T03:32:22.715Z,963.56
2019-03-23T03:33:22.754Z,963.52
2019-03-23T03:34:22.688Z,963.53
2019-03-23T03:35:22.675Z,963.56
2019-03-23T03:36:22.661Z,963.54
2019-03-23T03:37:22.649Z,963.56
2019-03-23T03:38:22.638Z,963.56
2019-03-23T03:39:22.624Z,963.51
2019-03-23T03:40:22.608Z,963.51
2019-03-23T03:41:22.596Z,963.47
2019-03-23T03:42:22.587Z,963.47
2019-03-23T03:43:22.573Z,963.46
2019-03-23T03:44:22.558Z,963.48
2019-03-23T03:45:22.546Z,963.46
2019-03-23T03:46:22.532Z,963.43
2019-03-23T03:47:22.519Z,963.46
2019-03-23T03:48:22.509Z,963.47
2019-03-23T03:49:22.493Z,963.41
2019-03-23T03:50:22.479Z,963.4
2019-03-23T03:51:22.470Z,963.43
2019-03-23T03:52:22.454Z,963.39
2019-03-23T03:53:22.441Z,963.42
2019-03-23T03:54:22.427Z,963.37
2019-03-23T03:55:22.415Z,963.37
2019-03-23T03:56:22.406Z,963.35
2019-03-23T03:57:22.392Z,963.35
2019-03-23T03:58:22.375Z,963.34
2019-03-23T03:59:22.367Z,963.35
2019-03-23T04:00:22.349Z,963.33
2019-03-23T04:01:22.338Z,963.34
2019-03-23T04:02:22.322Z,963.36
2019-03-23T04:03:22.310Z,963.34
2019-03-23T04:04:22.296Z,963.35
2019-03-23T04:05:22.283Z,963.31
2019-03-23T04:06:22.271Z,963.35
2019-03-23T04:07:22.257Z,963.37
2019-03-23T04:08:22.244Z,963.33
2019-03-23T04:09:22.235Z,963.3
2019-03-23T04:10:22.221Z,963.28
2019-03-23T04:11:22.209Z,963.24
2019-03-23T04:12:22.192Z,963.29
2019-03-23T04:13:22.187Z,963.21
2019-03-23T04:14:22.167Z,963.21
2019-03-23T04:15:22.153Z,963.2
2019-03-23T04:16:22.141Z,963.26
2019-03-23T04:17:22.128Z,963.22
2019-03-23T04:18:22.124Z,963.3
2019-03-23T04:19:22.101Z,963.32
2019-03-23T04:20:22.103Z,963.32
2019-03-23T04:21:22.075Z,963.32
2019-03-23T04:22:22.060Z,963.35
2019-03-23T04:23:22.047Z,963.33
2019-03-23T04:24:22.035Z,963.37
2019-03-23T04:25:22.021Z,963.36
2019-03-23T04:26:22.010Z,963.36
2019-03-23T04:27:21.996Z,963.37
2019-03-23T04:28:21.986Z,963.34
2019-03-23T04:29:21.968Z,963.41
2019-03-23T04:30:21.956Z,963.39
2019-03-23T04:31:21.941Z,963.42
2019-03-23T04:32:21.929Z,963.43
2019-03-23T04:33:21.916Z,963.45
2019-03-23T04:34:21.901Z,963.45
2019-03-23T04:35:21.891Z,963.49
2019-03-23T04:36:21.879Z,963.49
2019-03-23T04:37:21.867Z,963.5
2019-03-23T04:38:22.780Z,963.53
2019-03-23T04:39:21.838Z,963.52
2019-03-23T04:40:21.822Z,963.55
2019-03-23T04:41:21.809Z,963.54
2019-03-23T04:42:21.794Z,963.5
2019-03-23T04:43:21.784Z,963.55
2019-03-23T04:44:21.769Z,963.56
2019-03-23T04:45:21.756Z,963.57
2019-03-23T04:46:21.742Z,963.56
2019-03-23T04:47:21.730Z,963.58
2019-03-23T04:48:21.716Z,963.54
2019-03-23T04:49:21.703Z,963.53
2019-03-23T04:50:21.694Z,963.51
2019-03-23T04:51:21.676Z,963.53
2019-03-23T04:52:21.663Z,963.52
2019-03-23T04:53:21.650Z,963.45
2019-03-23T04:54:21.636Z,963.49
2019-03-23T04:55:21.624Z,963.53
2019-03-23T04:56:21.610Z,963.49
2019-03-23T04:57:21.597Z,963.51
2019-03-23T04:58:21.582Z,963.52
2019-03-23T04:59:21.570Z,963.49
2019-03-23T05:00:21.555Z,963.48
2019-03-23T05:01:21.542Z,963.51
2019-03-23T05:02:21.528Z,963.51
2019-03-23T05:03:21.518Z,963.52
2019-03-23T05:04:21.508Z,963.45
2019-03-23T05:05:21.489Z,963.47
2019-03-23T05:06:21.479Z,963.54
2019-03-23T05:07:21.462Z,963.53
2019-03-23T05:08:21.448Z,963.54
2019-03-23T05:09:21.435Z,963.52
2019-03-23T05:10:21.424Z,963.53
2019-03-23T05:11:21.410Z,963.54
2019-03-23T05:12:21.395Z,963.59
2019-03-23T05:13:21.381Z,963.61
2019-03-23T05:14:21.367Z,963.59
2019-03-23T05:15:21.354Z,963.55
2019-03-23T05:16:21.340Z,963.6
2019-03-23T05:17:21.328Z,963.61
2019-03-23T05:18:21.314Z,963.6
2019-03-23T05:19:21.301Z,963.65
2019-03-23T05:20:21.291Z,963.66
2019-03-23T05:21:21.273Z,963.66
2019-03-23T05:22:21.261Z,963.66
2019-03-23T05:23:21.246Z,963.67
2019-03-23T05:24:21.233Z,963.65
2019-03-23T05:25:21.218Z,963.67
2019-03-23T05:26:21.204Z,963.68
2019-03-23T05:27:21.193Z,963.67
2019-03-23T05:28:21.179Z,963.69
2019-03-23T05:29:21.163Z,963.69
2019-03-23T05:30:21.150Z,963.69
2019-03-23T05:31:21.138Z,963.68
2019-03-23T05:32:21.123Z,963.69
2019-03-23T05:33:21.109Z,963.66
2019-03-23T05:34:21.095Z,963.66
2019-03-23T05:35:21.083Z,963.66
2019-03-23T05:36:21.068Z,963.69
2019-03-23T05:37:21.055Z,963.68
2019-03-23T05:38:21.041Z,963.71
2019-03-23T05:39:21.028Z,963.72
2019-03-23T05:40:21.014Z,963.71
2019-03-23T05:41:21.000Z,963.7
2019-03-23T05:42:20.987Z,963.65
2019-03-23T05:43:20.973Z,963.7
2019-03-23T05:44:20.960Z,963.71
2019-03-23T05:45:20.944Z,963.71
2019-03-23T05:46:20.933Z,963.69
2019-03-23T05:47:20.920Z,963.72
2019-03-23T05:48:20.906Z,963.7
2019-03-23T05:49:20.891Z,963.71
2019-03-23T05:50:20.875Z,963.69
2019-03-23T05:51:20.862Z,963.7
2019-03-23T05:52:20.848Z,963.69
2019-03-23T05:53:20.835Z,963.66
2019-03-23T05:54:20.821Z,963.71
2019-03-23T05:55:20.806Z,963.7
2019-03-23T05:56:20.792Z,963.76
2019-03-23T05:57:20.780Z,963.73
2019-03-23T05:58:20.764Z,963.75
2019-03-23T05:59:20.751Z,963.76
2019-03-23T06:00:20.738Z,963.79
2019-03-23T06:01:20.728Z,963.81
2019-03-23T06:02:20.711Z,963.83
2019-03-23T06:03:20.697Z,963.84
2019-03-23T06:04:20.686Z,963.83
2019-03-23T06:05:20.670Z,963.88
2019-03-23T06:06:20.654Z,963.84
2019-03-23T06:07:20.642Z,963.85
2019-03-23T06:08:20.629Z,963.85
2019-03-23T06:09:20.618Z,963.85
2019-03-23T06:10:20.600Z,963.82
2019-03-23T06:11:20.587Z,963.81
2019-03-23T06:12:20.574Z,963.8
2019-03-23T06:13:20.561Z,963.83
2019-03-23T06:14:20.547Z,963.81
2019-03-23T06:15:20.534Z,963.77
2019-03-23T06:16:20.522Z,963.81
2019-03-23T06:17:20.507Z,963.83
2019-03-23T06:18:20.493Z,963.8
2019-03-23T06:19:20.481Z,963.82
2019-03-23T06:20:20.466Z,963.82
2019-03-23T06:21:20.453Z,963.83
2019-03-23T06:22:20.439Z,963.81
2019-03-23T06:23:20.426Z,963.77
2019-03-23T06:24:20.412Z,963.81
2019-03-23T06:25:20.404Z,963.77
2019-03-23T06:26:20.386Z,963.81
2019-03-23T06:27:20.374Z,963.81
2019-03-23T06:28:20.360Z,963.8
2019-03-23T06:29:20.348Z,963.76
2019-03-23T06:30:20.333Z,963.76
2019-03-23T06:31:20.320Z,963.76
2019-03-23T06:32:20.799Z,963.74
2019-03-23T06:33:20.295Z,963.75
2019-03-23T06:34:20.283Z,963.73
2019-03-23T06:35:20.268Z,963.72
2019-03-23T06:36:20.255Z,963.74
2019-03-23T06:37:20.242Z,963.71
2019-03-23T06:38:20.231Z,963.71
2019-03-23T06:39:20.219Z,963.79
2019-03-23T06:40:20.204Z,963.77
2019-03-23T06:41:20.192Z,963.83
2019-03-23T06:42:20.179Z,963.83
2019-03-23T06:43:20.167Z,963.83
2019-03-23T06:44:20.154Z,963.84
2019-03-23T06:45:20.141Z,963.85
2019-03-23T06:46:20.128Z,963.83
2019-03-23T06:47:20.116Z,963.84
2019-03-23T06:48:20.104Z,963.81
2019-03-23T06:49:20.091Z,963.84
2019-03-23T06:50:20.079Z,963.84
2019-03-23T06:51:20.068Z,963.84
2019-03-23T06:52:20.057Z,963.84
2019-03-23T06:53:20.043Z,963.8
2019-03-23T06:54:20.030Z,963.85
2019-03-23T06:55:20.021Z,963.84
2019-03-23T06:56:20.016Z,963.82
2019-03-23T06:57:19.994Z,963.81
2019-03-23T06:58:19.982Z,963.8
2019-03-23T06:59:19.978Z,963.81
2019-03-23T07:00:19.959Z,963.76
2019-03-23T07:01:19.949Z,963.79
2019-03-23T07:02:19.936Z,963.8
2019-03-23T07:03:19.929Z,963.79
2019-03-23T07:04:19.914Z,963.79
2019-03-23T07:05:19.902Z,963.81
2019-03-23T07:06:19.892Z,963.79
2019-03-23T07:07:19.880Z,963.82
2019-03-23T07:08:19.869Z,963.77
2019-03-23T07:09:19.857Z,963.76
2019-03-23T07:10:19.848Z,963.71
2019-03-23T07:11:19.839Z,963.7
2019-03-23T07:12:19.826Z,963.7
2019-03-23T07:13:19.815Z,963.71
2019-03-23T07:14:19.804Z,963.7
2019-03-23T07:15:20.634Z,963.63
2019-03-23T07:16:19.783Z,963.73
2019-03-23T07:17:19.773Z,963.72
2019-03-23T07:18:19.761Z,963.67
2019-03-23T07:19:19.748Z,963.71
2019-03-23T07:20:19.738Z,963.69
2019-03-23T07:21:19.730Z,963.68
2019-03-23T07:22:19.716Z,963.71
2019-03-23T07:23:19.706Z,963.67
2019-03-23T07:24:19.696Z,963.71
2019-03-23T07:25:19.685Z,963.73
2019-03-23T07:26:19.673Z,963.73
2019-03-23T07:27:19.663Z,963.73
2019-03-23T07:28:19.654Z,963.72
2019-03-23T07:29:19.642Z,963.73
2019-03-23T07:30:19.633Z,963.72
2019-03-23T07:31:19.628Z,963.72
2019-03-23T07:32:19.614Z,963.71
2019-03-23T07:33:19.599Z,963.74
2019-03-23T07:34:19.591Z,963.68
2019-03-23T07:35:19.591Z,963.67
2019-03-23T07:36:19.570Z,963.68
2019-03-23T07:37:19.559Z,963.7
2019-03-23T07:38:19.549Z,963.69
2019-03-23T07:39:27.113Z,963.71
2019-03-23T07:40:19.529Z,963.71
2019-03-23T07:41:19.518Z,963.7
2019-03-23T07:42:19.508Z,963.68
2019-03-23T07:43:19.500Z,963.73
2019-03-23T07:44:19.488Z,963.73
2019-03-23T07:45:19.479Z,963.74
2019-03-23T07:46:19.468Z,963.72
2019-03-23T07:47:19.458Z,963.72
2019-03-23T07:48:19.450Z,963.72
2019-03-23T07:49:19.438Z,963.72
2019-03-23T07:50:19.428Z,963.74
2019-03-23T07:51:19.419Z,963.76
2019-03-23T07:52:19.409Z,963.79
2019-03-23T07:53:19.399Z,963.77
2019-03-23T07:54:19.390Z,963.82
2019-03-23T07:55:19.379Z,963.81
2019-03-23T07:56:19.369Z,963.82
2019-03-23T07:57:19.361Z,963.86
2019-03-23T07:58:19.352Z,963.84
2019-03-23T07:59:19.340Z,963.85
2019-03-23T08:00:19.333Z,963.87
2019-03-23T08:01:19.322Z,963.81
2019-03-23T08:02:19.313Z,963.8
2019-03-23T08:03:19.305Z,963.79
2019-03-23T08:04:19.294Z,963.77
2019-03-23T08:05:19.286Z,963.82
2019-03-23T08:06:19.280Z,963.8
2019-03-23T08:07:19.268Z,963.81
2019-03-23T08:08:19.259Z,963.85
2019-03-23T08:09:20.566Z,963.84
2019-03-23T08:10:19.241Z,963.89
2019-03-23T08:11:19.233Z,963.88
2019-03-23T08:12:19.224Z,963.89
2019-03-23T08:13:19.281Z,963.84
2019-03-23T08:14:19.213Z,963.92
2019-03-23T08:15:19.200Z,963.96
2019-03-23T08:16:19.192Z,963.95
2019-03-23T08:17:19.183Z,963.98
2019-03-23T08:18:19.174Z,963.97
2019-03-23T08:19:19.167Z,963.94
2019-03-23T08:20:19.158Z,963.92
2019-03-23T08:21:19.150Z,963.92
2019-03-23T08:22:19.143Z,963.94
2019-03-23T08:23:19.135Z,963.92
2019-03-23T08:24:19.124Z,963.94
2019-03-23T08:25:19.117Z,963.9
2019-03-23T08:26:19.110Z,963.92
2019-03-23T08:27:19.102Z,963.92
2019-03-23T08:28:19.093Z,963.87
2019-03-23T08:29:19.085Z,963.9
2019-03-23T08:30:19.078Z,963.88
2019-03-23T08:31:19.071Z,963.86
2019-03-23T08:32:19.062Z,963.83
2019-03-23T08:33:19.055Z,963.86
2019-03-23T08:34:19.048Z,963.85
2019-03-23T08:35:19.039Z,963.86
2019-03-23T08:36:19.032Z,963.85
2019-03-23T08:37:19.024Z,963.85
2019-03-23T08:38:19.019Z,963.82
2019-03-23T08:39:19.010Z,963.81
2019-03-23T08:40:19.004Z,963.81
2019-03-23T08:41:18.997Z,963.83
2019-03-23T08:42:18.990Z,963.87
2019-03-23T08:43:18.980Z,963.87
2019-03-23T08:44:18.973Z,963.84
2019-03-23T08:45:18.966Z,963.83
2019-03-23T08:46:18.959Z,963.81
2019-03-23T08:47:18.952Z,963.82
2019-03-23T08:48:18.946Z,963.83
2019-03-23T08:49:18.940Z,963.81
2019-03-23T08:50:18.931Z,963.8
2019-03-23T08:51:18.924Z,963.81
2019-03-23T08:52:18.918Z,963.76
2019-03-23T08:53:18.911Z,963.83
2019-03-23T08:54:18.903Z,963.84
2019-03-23T08:55:18.897Z,963.82
2019-03-23T08:56:18.890Z,963.82
2019-03-23T08:57:18.883Z,963.82
2019-03-23T08:58:18.878Z,963.82
2019-03-23T08:59:18.871Z,963.76
2019-03-23T09:00:18.864Z,963.76
2019-03-23T09:01:18.856Z,963.77
2019-03-23T09:02:18.850Z,963.71
2019-03-23T09:03:18.845Z,963.68
2019-03-23T09:04:18.838Z,963.7
2019-03-23T09:05:18.830Z,963.65
2019-03-23T09:06:18.824Z,963.67
2019-03-23T09:07:18.818Z,963.7
2019-03-23T09:08:18.815Z,963.68
2019-03-23T09:09:18.805Z,963.64
2019-03-23T09:10:18.799Z,963.62
2019-03-23T09:11:20.541Z,963.61
2019-03-23T09:12:18.783Z,963.63
2019-03-23T09:13:18.778Z,963.6
2019-03-23T09:14:18.772Z,963.61
2019-03-23T09:15:18.764Z,963.62
2019-03-23T09:16:18.758Z,963.63
2019-03-23T09:17:18.752Z,963.59
2019-03-23T09:18:18.748Z,963.59
2019-03-23T09:19:18.742Z,963.59
2019-03-23T09:20:18.734Z,963.63
2019-03-23T09:21:18.729Z,963.58
2019-03-23T09:22:18.722Z,963.63
2019-03-23T09:23:18.716Z,963.67
2019-03-23T09:24:18.709Z,963.67
2019-03-23T09:25:18.704Z,963.64
2019-03-23T09:26:18.697Z,963.61
2019-03-23T09:27:18.690Z,963.63
2019-03-23T09:28:18.688Z,963.58
2019-03-23T09:29:18.678Z,963.63
2019-03-23T09:30:18.670Z,963.61
2019-03-23T09:31:18.666Z,963.61
2019-03-23T09:32:18.660Z,963.6
2019-03-23T09:33:18.653Z,963.59
2019-03-23T09:34:18.647Z,963.59
2019-03-23T09:35:18.641Z,963.57
2019-03-23T09:36:22.766Z,963.57
2019-03-23T09:37:18.630Z,963.59
2019-03-23T09:38:18.621Z,963.55
2019-03-23T09:39:18.617Z,963.6
2019-03-23T09:40:18.610Z,963.58
2019-03-23T09:41:18.603Z,963.56
2019-03-23T09:42:18.599Z,963.57
2019-03-23T09:43:18.594Z,963.56
2019-03-23T09:44:18.588Z,963.57
2019-03-23T09:45:18.581Z,963.48
2019-03-23T09:46:18.576Z,963.53
2019-03-23T09:47:18.571Z,963.51
2019-03-23T09:48:18.565Z,963.48
2019-03-23T09:49:18.559Z,963.48
2019-03-23T09:50:18.558Z,963.44
2019-03-23T09:51:18.551Z,963.42
2019-03-23T09:52:18.540Z,963.4
2019-03-23T09:53:18.536Z,963.4
2019-03-23T09:54:18.531Z,963.36
2019-03-23T09:55:18.526Z,963.39
2019-03-23T09:56:18.520Z,963.39
2019-03-23T09:57:18.512Z,963.37
2019-03-23T09:58:18.507Z,963.33
2019-03-23T09:59:18.501Z,963.36
2019-03-23T10:00:18.496Z,963.4
2019-03-23T10:01:18.492Z,963.4
2019-03-23T10:02:18.485Z,963.41
2019-03-23T10:03:18.481Z,963.38
2019-03-23T10:04:18.473Z,963.4
2019-03-23T10:05:18.469Z,963.36
2019-03-23T10:06:18.464Z,963.36
2019-03-23T10:07:18.458Z,963.33
2019-03-23T10:08:18.454Z,963.35
2019-03-23T10:09:18.501Z,963.36
2019-03-23T10:10:21.890Z,963.35
2019-03-23T10:11:18.436Z,963.37
2019-03-23T10:12:18.430Z,963.37
2019-03-23T10:13:18.425Z,963.42
2019-03-23T10:14:18.426Z,963.38
2019-03-23T10:15:18.414Z,963.37
2019-03-23T10:16:18.408Z,963.38
2019-03-23T10:17:18.405Z,963.36
2019-03-23T10:18:18.398Z,963.37
2019-03-23T10:19:18.394Z,963.33
2019-03-23T10:20:18.388Z,963.39
2019-03-23T10:21:18.384Z,963.39
2019-03-23T10:22:18.438Z,963.38
2019-03-23T10:23:18.373Z,963.39
2019-03-23T10:24:18.368Z,963.31
2019-03-23T10:25:18.361Z,963.35
2019-03-23T10:26:18.357Z,963.35
2019-03-23T10:27:18.351Z,963.39
2019-03-23T10:28:18.347Z,963.38
2019-03-23T10:29:18.341Z,963.38
2019-03-23T10:30:18.338Z,963.36
2019-03-23T10:31:18.334Z,963.36
2019-03-23T10:32:18.331Z,963.39
2019-03-23T10:33:18.321Z,963.35
2019-03-23T10:34:18.315Z,963.35
2019-03-23T10:35:18.315Z,963.35
2019-03-23T10:36:18.307Z,963.32
2019-03-23T10:37:18.300Z,963.3
2019-03-23T10:38:18.297Z,963.32
2019-03-23T10:39:18.291Z,963.3
2019-03-23T10:40:18.285Z,963.28
2019-03-23T10:41:18.283Z,963.22
2019-03-23T10:42:18.278Z,963.27
2019-03-23T10:43:18.273Z,963.27
2019-03-23T10:44:18.266Z,963.31
2019-03-23T10:45:18.263Z,963.24
2019-03-23T10:46:18.257Z,963.31
2019-03-23T10:47:18.317Z,963.27
2019-03-23T10:48:18.249Z,963.26
2019-03-23T10:49:18.243Z,963.25
2019-03-23T10:50:18.241Z,963.27
2019-03-23T10:51:18.234Z,963.29
2019-03-23T10:52:18.229Z,963.27
2019-03-23T10:53:22.764Z,963.29
2019-03-23T10:54:18.219Z,963.25
2019-03-23T10:55:18.215Z,963.25
2019-03-23T10:56:18.210Z,963.26
2019-03-23T10:57:18.207Z,963.21
2019-03-23T10:58:18.201Z,963.3
2019-03-23T10:59:18.196Z,963.28
2019-03-23T11:00:18.191Z,963.29
2019-03-23T11:01:18.188Z,963.28
2019-03-23T11:02:18.182Z,963.26
2019-03-23T11:03:18.178Z,963.23
2019-03-23T11:04:18.173Z,963.23
2019-03-23T11:05:18.168Z,963.21
2019-03-23T11:06:18.164Z,963.27
2019-03-23T11:07:18.161Z,963.2
2019-03-23T11:08:18.157Z,963.23
2019-03-23T11:09:18.152Z,963.19
2019-03-23T11:10:18.148Z,963.17
2019-03-23T11:11:18.143Z,963.16
2019-03-23T11:12:18.138Z,963.23
2019-03-23T11:13:18.132Z,963.17
2019-03-23T11:14:18.129Z,963.2
2019-03-23T11:15:18.124Z,963.18
2019-03-23T11:16:18.119Z,963.22
2019-03-23T11:17:18.118Z,963.18
2019-03-23T11:18:18.111Z,963.13
2019-03-23T11:19:18.106Z,963.12
2019-03-23T11:20:18.101Z,963.12
2019-03-23T11:21:18.099Z,963.11
2019-03-23T11:22:18.093Z,963.13
2019-03-23T11:23:18.088Z,963.15
2019-03-23T11:24:18.084Z,963.15
2019-03-23T11:25:18.081Z,963.15
2019-03-23T11:26:18.076Z,963.14
2019-03-23T11:27:18.071Z,963.21
2019-03-23T11:28:18.067Z,963.13
2019-03-23T11:29:18.063Z,963.15
2019-03-23T11:30:18.058Z,963.17
2019-03-23T11:31:18.052Z,963.16
2019-03-23T11:32:18.049Z,963.14
2019-03-23T11:33:18.048Z,963.1
2019-03-23T11:34:18.267Z,963.11
2019-03-23T11:35:18.130Z,963.17
2019-03-23T11:36:18.031Z,963.14
2019-03-23T11:37:18.128Z,963.12
2019-03-23T11:38:18.022Z,963.12
2019-03-23T11:39:18.017Z,963.14
2019-03-23T11:40:18.014Z,963.12
2019-03-23T11:41:18.010Z,963.09
2019-03-23T11:42:18.004Z,963.04
2019-03-23T11:43:18.001Z,963.09
2019-03-23T11:44:17.998Z,963.08
2019-03-23T11:45:17.994Z,963.1
2019-03-23T11:46:17.990Z,963.11
2019-03-23T11:47:17.987Z,963.14
2019-03-23T11:48:17.981Z,963.1
2019-03-23T11:49:17.975Z,963.12
2019-03-23T11:50:17.971Z,963.1
2019-03-23T11:51:17.968Z,963.08
2019-03-23T11:52:17.963Z,963.07
2019-03-23T11:53:17.959Z,963.02
2019-03-23T11:54:17.956Z,963
2019-03-23T11:55:17.952Z,963.03
2019-03-23T11:56:17.949Z,963
2019-03-23T11:57:17.946Z,962.96
2019-03-23T11:58:17.938Z,962.97
2019-03-23T11:59:17.933Z,963.04
2019-03-23T12:00:17.929Z,963.04
2019-03-23T12:01:17.925Z,963
2019-03-23T12:02:17.924Z,963.04
2019-03-23T12:03:17.918Z,963.01
2019-03-23T12:04:17.913Z,962.97
2019-03-23T12:05:17.909Z,962.97
2019-03-23T12:06:17.904Z,962.92
2019-03-23T12:07:17.917Z,962.95
2019-03-23T12:08:17.900Z,962.91
2019-03-23T12:09:17.892Z,962.92
2019-03-23T12:10:17.888Z,962.91
2019-03-23T12:11:17.882Z,962.92
2019-03-23T12:12:17.879Z,962.88
2019-03-23T12:13:17.874Z,962.92
2019-03-23T12:14:17.872Z,962.91
2019-03-23T12:15:17.867Z,962.89
2019-03-23T12:16:17.863Z,962.9
2019-03-23T12:17:17.857Z,962.81
2019-03-23T12:18:17.852Z,962.75
2019-03-23T12:19:17.848Z,962.79
2019-03-23T12:20:17.845Z,962.73
2019-03-23T12:21:17.842Z,962.72
2019-03-23T12:22:17.835Z,962.75
2019-03-23T12:23:17.833Z,962.78
2019-03-23T12:24:17.830Z,962.72
2019-03-23T12:25:17.824Z,962.76
2019-03-23T12:26:17.819Z,962.84
2019-03-23T12:27:17.816Z,962.77
2019-03-23T12:28:17.812Z,962.78
2019-03-23T12:29:17.808Z,962.87
2019-03-23T12:30:17.803Z,962.83